Field WX: KFPK 041655Z AUTO 29003KT 10SM CLR 26/13 A3015 RMK AO2 T02590134 Decode METAR

YouTube! Facebook

JSN Epic is designed by JoomlaShine.com